sensor_id;sensor_type;location;lat;lon;timestamp;P1;durP1;ratioP1;P2;durP2;ratioP2
78453;SDS011;67750;55.832;49.124;2023-04-03T00:01:39;10.25;;;4.05;;
78453;SDS011;67750;55.832;49.124;2023-04-03T00:04:28;10.32;;;4.15;;
78453;SDS011;67750;55.832;49.124;2023-04-03T00:06:57;12.90;;;4.50;;
78453;SDS011;67750;55.832;49.124;2023-04-03T00:09:27;7.62;;;3.45;;
78453;SDS011;67750;55.832;49.124;2023-04-03T00:11:57;7.25;;;3.55;;
78453;SDS011;67750;55.832;49.124;2023-04-03T00:14:27;9.45;;;4.40;;
78453;SDS011;67750;55.832;49.124;2023-04-03T00:16:56;7.28;;;3.70;;
78453;SDS011;67750;55.832;49.124;2023-04-03T00:19:25;11.65;;;4.03;;
78453;SDS011;67750;55.832;49.124;2023-04-03T00:21:55;6.97;;;3.62;;
78453;SDS011;67750;55.832;49.124;2023-04-03T00:24:24;7.60;;;3.37;;
78453;SDS011;67750;55.832;49.124;2023-04-03T00:26:54;10.68;;;4.35;;
78453;SDS011;67750;55.832;49.124;2023-04-03T00:29:23;8.80;;;4.15;;
78453;SDS011;67750;55.832;49.124;2023-04-03T00:31:52;7.83;;;3.92;;
78453;SDS011;67750;55.832;49.124;2023-04-03T00:34:22;10.15;;;5.15;;
78453;SDS011;67750;55.832;49.124;2023-04-03T00:36:51;7.10;;;3.58;;
78453;SDS011;67750;55.832;49.124;2023-04-03T00:39:21;6.75;;;3.62;;
78453;SDS011;67750;55.832;49.124;2023-04-03T00:41:50;8.78;;;3.58;;
78453;SDS011;67750;55.832;49.124;2023-04-03T00:44:22;10.32;;;4.33;;
78453;SDS011;67750;55.832;49.124;2023-04-03T00:46:51;10.18;;;3.90;;
78453;SDS011;67750;55.832;49.124;2023-04-03T00:49:21;7.45;;;3.77;;
78453;SDS011;67750;55.832;49.124;2023-04-03T00:51:50;6.40;;;3.40;;
78453;SDS011;67750;55.832;49.124;2023-04-03T00:54:20;6.92;;;3.60;;
78453;SDS011;67750;55.832;49.124;2023-04-03T00:56:51;5.80;;;3.58;;
78453;SDS011;67750;55.832;49.124;2023-04-03T00:59:54;9.90;;;4.20;;
78453;SDS011;67750;55.832;49.124;2023-04-03T01:01:54;6.45;;;3.47;;
78453;SDS011;67750;55.832;49.124;2023-04-03T01:07:15;5.50;;;3.62;;
78453;SDS011;67750;55.832;49.124;2023-04-03T01:09:46;8.85;;;3.50;;
78453;SDS011;67750;55.832;49.124;2023-04-03T01:14:46;7.83;;;3.75;;
78453;SDS011;67750;55.832;49.124;2023-04-03T01:25:26;7.35;;;3.70;;
78453;SDS011;67750;55.832;49.124;2023-04-03T01:27:56;8.75;;;3.72;;
78453;SDS011;67750;55.832;49.124;2023-04-03T01:30:28;8.35;;;3.45;;
78453;SDS011;67750;55.832;49.124;2023-04-03T01:32:58;9.78;;;3.45;;
78453;SDS011;67750;55.832;49.124;2023-04-03T01:35:28;9.33;;;3.70;;
78453;SDS011;67750;55.832;49.124;2023-04-03T01:37:58;9.03;;;3.50;;
78453;SDS011;67750;55.832;49.124;2023-04-03T01:40:27;8.95;;;3.62;;
78453;SDS011;67750;55.832;49.124;2023-04-03T01:42:57;7.10;;;3.92;;
78453;SDS011;67750;55.832;49.124;2023-04-03T01:45:27;6.87;;;3.60;;
78453;SDS011;67750;55.832;49.124;2023-04-03T01:47:56;10.30;;;3.83;;
78453;SDS011;67750;55.832;49.124;2023-04-03T01:50:26;8.90;;;3.87;;
78453;SDS011;67750;55.832;49.124;2023-04-03T01:52:56;6.62;;;3.42;;
78453;SDS011;67750;55.832;49.124;2023-04-03T01:55:25;11.28;;;3.92;;
78453;SDS011;67750;55.832;49.124;2023-04-03T01:57:55;20.57;;;3.47;;
78453;SDS011;67750;55.832;49.124;2023-04-03T02:00:24;7.10;;;3.70;;
78453;SDS011;67750;55.832;49.124;2023-04-03T02:02:54;8.40;;;4.10;;
78453;SDS011;67750;55.832;49.124;2023-04-03T02:05:25;7.42;;;3.65;;
78453;SDS011;67750;55.832;49.124;2023-04-03T02:07:54;10.48;;;3.58;;
78453;SDS011;67750;55.832;49.124;2023-04-03T02:10:24;10.23;;;4.75;;
78453;SDS011;67750;55.832;49.124;2023-04-03T02:12:54;8.20;;;3.58;;
78453;SDS011;67750;55.832;49.124;2023-04-03T02:15:24;10.45;;;3.70;;
78453;SDS011;67750;55.832;49.124;2023-04-03T02:17:54;10.88;;;3.85;;
78453;SDS011;67750;55.832;49.124;2023-04-03T02:20:24;10.68;;;4.10;;
78453;SDS011;67750;55.832;49.124;2023-04-03T02:22:53;11.38;;;3.72;;
78453;SDS011;67750;55.832;49.124;2023-04-03T02:25:24;9.43;;;3.70;;
78453;SDS011;67750;55.832;49.124;2023-04-03T02:27:53;7.70;;;3.72;;
78453;SDS011;67750;55.832;49.124;2023-04-03T02:30:23;8.70;;;3.42;;
78453;SDS011;67750;55.832;49.124;2023-04-03T02:32:52;8.88;;;4.03;;
78453;SDS011;67750;55.832;49.124;2023-04-03T02:35:22;6.22;;;3.42;;
78453;SDS011;67750;55.832;49.124;2023-04-03T02:37:52;10.20;;;3.75;;
78453;SDS011;67750;55.832;49.124;2023-04-03T02:40:22;12.45;;;3.52;;
78453;SDS011;67750;55.832;49.124;2023-04-03T02:42:51;8.13;;;3.30;;
78453;SDS011;67750;55.832;49.124;2023-04-03T02:45:22;8.10;;;3.85;;
78453;SDS011;67750;55.832;49.124;2023-04-03T02:47:52;9.45;;;3.70;;
78453;SDS011;67750;55.832;49.124;2023-04-03T02:50:21;8.10;;;3.40;;
78453;SDS011;67750;55.832;49.124;2023-04-03T02:52:51;7.53;;;4.17;;
78453;SDS011;67750;55.832;49.124;2023-04-03T02:55:20;7.15;;;3.37;;
78453;SDS011;67750;55.832;49.124;2023-04-03T02:57:50;9.05;;;3.42;;
78453;SDS011;67750;55.832;49.124;2023-04-03T03:00:20;11.08;;;3.62;;
78453;SDS011;67750;55.832;49.124;2023-04-03T03:02:49;8.18;;;3.25;;
78453;SDS011;67750;55.832;49.124;2023-04-03T03:05:19;6.58;;;3.35;;
78453;SDS011;67750;55.832;49.124;2023-04-03T03:07:48;9.15;;;4.08;;
78453;SDS011;67750;55.832;49.124;2023-04-03T03:10:18;8.80;;;3.60;;
78453;SDS011;67750;55.832;49.124;2023-04-03T03:12:47;10.55;;;4.33;;
78453;SDS011;67750;55.832;49.124;2023-04-03T03:15:17;6.47;;;3.85;;
78453;SDS011;67750;55.832;49.124;2023-04-03T03:17:46;10.43;;;4.00;;
78453;SDS011;67750;55.832;49.124;2023-04-03T03:20:16;10.25;;;3.92;;
78453;SDS011;67750;55.832;49.124;2023-04-03T03:22:45;11.10;;;4.00;;
78453;SDS011;67750;55.832;49.124;2023-04-03T03:25:15;8.68;;;3.05;;
78453;SDS011;67750;55.832;49.124;2023-04-03T03:27:44;8.28;;;3.60;;
78453;SDS011;67750;55.832;49.124;2023-04-03T03:30:14;10.38;;;4.05;;
78453;SDS011;67750;55.832;49.124;2023-04-03T03:32:43;6.70;;;3.45;;
78453;SDS011;67750;55.832;49.124;2023-04-03T03:35:13;7.60;;;3.35;;
78453;SDS011;67750;55.832;49.124;2023-04-03T03:37:42;8.00;;;3.75;;
78453;SDS011;67750;55.832;49.124;2023-04-03T03:40:12;10.65;;;4.75;;
78453;SDS011;67750;55.832;49.124;2023-04-03T03:42:42;9.38;;;3.80;;
78453;SDS011;67750;55.832;49.124;2023-04-03T03:45:12;10.23;;;4.25;;
78453;SDS011;67750;55.832;49.124;2023-04-03T03:47:42;14.47;;;3.37;;
78453;SDS011;67750;55.832;49.124;2023-04-03T03:50:12;11.22;;;3.62;;
78453;SDS011;67750;55.832;49.124;2023-04-03T03:52:42;9.10;;;3.67;;
78453;SDS011;67750;55.832;49.124;2023-04-03T03:55:11;9.40;;;3.55;;
78453;SDS011;67750;55.832;49.124;2023-04-03T03:57:41;15.40;;;4.08;;
78453;SDS011;67750;55.832;49.124;2023-04-03T04:00:11;17.95;;;3.87;;
78453;SDS011;67750;55.832;49.124;2023-04-03T04:03:01;14.33;;;4.30;;
78453;SDS011;67750;55.832;49.124;2023-04-03T04:05:31;8.33;;;3.50;;
78453;SDS011;67750;55.832;49.124;2023-04-03T04:08:00;11.53;;;3.92;;
78453;SDS011;67750;55.832;49.124;2023-04-03T04:10:31;11.83;;;4.30;;
78453;SDS011;67750;55.832;49.124;2023-04-03T04:13:00;15.45;;;3.72;;
78453;SDS011;67750;55.832;49.124;2023-04-03T04:15:31;13.53;;;3.87;;
78453;SDS011;67750;55.832;49.124;2023-04-03T04:18:00;12.07;;;3.70;;
78453;SDS011;67750;55.832;49.124;2023-04-03T04:20:30;10.30;;;4.10;;
78453;SDS011;67750;55.832;49.124;2023-04-03T04:23:00;10.60;;;4.22;;
78453;SDS011;67750;55.832;49.124;2023-04-03T04:25:30;12.73;;;3.50;;
78453;SDS011;67750;55.832;49.124;2023-04-03T04:28:00;8.90;;;4.20;;
78453;SDS011;67750;55.832;49.124;2023-04-03T04:30:29;13.80;;;3.62;;
78453;SDS011;67750;55.832;49.124;2023-04-03T04:32:59;9.75;;;4.37;;
78453;SDS011;67750;55.832;49.124;2023-04-03T04:35:29;12.88;;;4.22;;
78453;SDS011;67750;55.832;49.124;2023-04-03T04:37:59;13.03;;;4.05;;
78453;SDS011;67750;55.832;49.124;2023-04-03T04:40:29;15.98;;;4.33;;
78453;SDS011;67750;55.832;49.124;2023-04-03T04:42:59;14.03;;;3.72;;
78453;SDS011;67750;55.832;49.124;2023-04-03T04:45:28;13.08;;;3.70;;
78453;SDS011;67750;55.832;49.124;2023-04-03T04:47:58;19.55;;;3.33;;
78453;SDS011;67750;55.832;49.124;2023-04-03T04:50:28;17.05;;;3.47;;
78453;SDS011;67750;55.832;49.124;2023-04-03T04:52:58;11.73;;;3.00;;
78453;SDS011;67750;55.832;49.124;2023-04-03T04:55:27;19.62;;;4.10;;
78453;SDS011;67750;55.832;49.124;2023-04-03T04:57:57;16.05;;;3.62;;
78453;SDS011;67750;55.832;49.124;2023-04-03T05:00:27;17.95;;;3.22;;
78453;SDS011;67750;55.832;49.124;2023-04-03T05:02:56;16.60;;;3.05;;
78453;SDS011;67750;55.832;49.124;2023-04-03T05:05:26;13.35;;;3.10;;
78453;SDS011;67750;55.832;49.124;2023-04-03T05:07:56;14.98;;;2.80;;
78453;SDS011;67750;55.832;49.124;2023-04-03T05:10:25;11.70;;;2.22;;
78453;SDS011;67750;55.832;49.124;2023-04-03T05:12:55;8.05;;;2.40;;
78453;SDS011;67750;55.832;49.124;2023-04-03T05:15:24;8.78;;;1.82;;
78453;SDS011;67750;55.832;49.124;2023-04-03T05:17:54;8.78;;;2.10;;
78453;SDS011;67750;55.832;49.124;2023-04-03T05:20:24;9.98;;;1.98;;
78453;SDS011;67750;55.832;49.124;2023-04-03T05:22:54;13.45;;;1.80;;
78453;SDS011;67750;55.832;49.124;2023-04-03T05:25:23;10.23;;;2.05;;
78453;SDS011;67750;55.832;49.124;2023-04-03T05:27:53;13.25;;;1.82;;
78453;SDS011;67750;55.832;49.124;2023-04-03T05:30:23;10.53;;;1.85;;
78453;SDS011;67750;55.832;49.124;2023-04-03T05:32:53;6.65;;;1.60;;
78453;SDS011;67750;55.832;49.124;2023-04-03T05:35:24;8.88;;;1.55;;
78453;SDS011;67750;55.832;49.124;2023-04-03T05:40:44;5.55;;;1.75;;
78453;SDS011;67750;55.832;49.124;2023-04-03T05:43:14;14.78;;;1.80;;
78453;SDS011;67750;55.832;49.124;2023-04-03T05:45:44;12.63;;;2.15;;
78453;SDS011;67750;55.832;49.124;2023-04-03T05:48:14;10.95;;;2.22;;
78453;SDS011;67750;55.832;49.124;2023-04-03T05:50:43;6.50;;;2.00;;
78453;SDS011;67750;55.832;49.124;2023-04-03T05:53:50;8.80;;;2.02;;
78453;SDS011;67750;55.832;49.124;2023-04-03T05:55:46;7.37;;;1.85;;
78453;SDS011;67750;55.832;49.124;2023-04-03T05:58:15;8.50;;;1.60;;
78453;SDS011;67750;55.832;49.124;2023-04-03T06:00:45;15.05;;;2.47;;
78453;SDS011;67750;55.832;49.124;2023-04-03T06:03:15;11.73;;;2.10;;
78453;SDS011;67750;55.832;49.124;2023-04-03T06:05:45;11.83;;;2.30;;
78453;SDS011;67750;55.832;49.124;2023-04-03T06:08:14;13.93;;;2.52;;
78453;SDS011;67750;55.832;49.124;2023-04-03T06:10:44;13.58;;;2.05;;
78453;SDS011;67750;55.832;49.124;2023-04-03T06:13:14;9.48;;;2.00;;
78453;SDS011;67750;55.832;49.124;2023-04-03T06:15:44;8.63;;;2.20;;
78453;SDS011;67750;55.832;49.124;2023-04-03T06:18:13;6.95;;;1.90;;
78453;SDS011;67750;55.832;49.124;2023-04-03T06:20:43;10.43;;;1.75;;
78453;SDS011;67750;55.832;49.124;2023-04-03T06:23:12;4.87;;;1.40;;
78453;SDS011;67750;55.832;49.124;2023-04-03T06:25:42;13.05;;;2.40;;
78453;SDS011;67750;55.832;49.124;2023-04-03T06:28:12;13.58;;;1.72;;
78453;SDS011;67750;55.832;49.124;2023-04-03T06:30:42;5.53;;;2.20;;
78453;SDS011;67750;55.832;49.124;2023-04-03T06:33:11;10.88;;;2.20;;
78453;SDS011;67750;55.832;49.124;2023-04-03T06:35:41;7.22;;;1.42;;
78453;SDS011;67750;55.832;49.124;2023-04-03T06:38:11;6.65;;;1.90;;
78453;SDS011;67750;55.832;49.124;2023-04-03T06:40:40;4.05;;;1.47;;
78453;SDS011;67750;55.832;49.124;2023-04-03T06:43:10;6.22;;;1.70;;
78453;SDS011;67750;55.832;49.124;2023-04-03T06:45:40;5.92;;;1.65;;
78453;SDS011;67750;55.832;49.124;2023-04-03T06:48:09;9.18;;;1.72;;
78453;SDS011;67750;55.832;49.124;2023-04-03T06:50:39;15.58;;;2.42;;
78453;SDS011;67750;55.832;49.124;2023-04-03T06:53:08;8.68;;;2.08;;
78453;SDS011;67750;55.832;49.124;2023-04-03T06:55:39;6.20;;;1.60;;
78453;SDS011;67750;55.832;49.124;2023-04-03T06:58:08;12.15;;;1.95;;
78453;SDS011;67750;55.832;49.124;2023-04-03T07:00:37;6.12;;;1.50;;
78453;SDS011;67750;55.832;49.124;2023-04-03T07:03:07;4.30;;;1.70;;
78453;SDS011;67750;55.832;49.124;2023-04-03T07:05:36;4.85;;;1.60;;
78453;SDS011;67750;55.832;49.124;2023-04-03T07:08:05;9.55;;;1.85;;
78453;SDS011;67750;55.832;49.124;2023-04-03T07:10:35;7.90;;;2.50;;
78453;SDS011;67750;55.832;49.124;2023-04-03T07:13:06;7.87;;;1.70;;
78453;SDS011;67750;55.832;49.124;2023-04-03T07:15:35;8.80;;;2.00;;
78453;SDS011;67750;55.832;49.124;2023-04-03T07:18:05;7.03;;;1.60;;
78453;SDS011;67750;55.832;49.124;2023-04-03T07:20:35;6.03;;;1.70;;
78453;SDS011;67750;55.832;49.124;2023-04-03T07:23:04;4.28;;;1.75;;
78453;SDS011;67750;55.832;49.124;2023-04-03T07:25:34;10.55;;;1.85;;
78453;SDS011;67750;55.832;49.124;2023-04-03T07:28:03;7.72;;;1.98;;
78453;SDS011;67750;55.832;49.124;2023-04-03T07:33:03;6.83;;;1.60;;
78453;SDS011;67750;55.832;49.124;2023-04-03T07:35:33;8.60;;;1.82;;
78453;SDS011;67750;55.832;49.124;2023-04-03T07:38:02;3.87;;;1.60;;
78453;SDS011;67750;55.832;49.124;2023-04-03T07:40:32;9.33;;;2.15;;
78453;SDS011;67750;55.832;49.124;2023-04-03T07:43:02;5.20;;;1.87;;
78453;SDS011;67750;55.832;49.124;2023-04-03T07:45:34;12.28;;;2.12;;
78453;SDS011;67750;55.832;49.124;2023-04-03T07:48:03;7.80;;;1.80;;
78453;SDS011;67750;55.832;49.124;2023-04-03T07:50:33;8.15;;;2.08;;
78453;SDS011;67750;55.832;49.124;2023-04-03T07:53:03;6.70;;;1.75;;
78453;SDS011;67750;55.832;49.124;2023-04-03T07:55:34;7.10;;;1.60;;
78453;SDS011;67750;55.832;49.124;2023-04-03T07:58:05;5.17;;;1.50;;
78453;SDS011;67750;55.832;49.124;2023-04-03T08:00:34;9.28;;;1.95;;
78453;SDS011;67750;55.832;49.124;2023-04-03T08:03:04;3.55;;;1.40;;
78453;SDS011;67750;55.832;49.124;2023-04-03T08:08:23;5.60;;;1.60;;
78453;SDS011;67750;55.832;49.124;2023-04-03T08:10:53;4.45;;;1.32;;
78453;SDS011;67750;55.832;49.124;2023-04-03T08:13:23;4.33;;;1.57;;
78453;SDS011;67750;55.832;49.124;2023-04-03T08:15:52;5.58;;;1.70;;
78453;SDS011;67750;55.832;49.124;2023-04-03T08:20:52;9.98;;;1.75;;
78453;SDS011;67750;55.832;49.124;2023-04-03T08:23:22;7.20;;;1.60;;
78453;SDS011;67750;55.832;49.124;2023-04-03T08:25:51;4.65;;;1.52;;
78453;SDS011;67750;55.832;49.124;2023-04-03T08:28:21;4.55;;;1.50;;
78453;SDS011;67750;55.832;49.124;2023-04-03T08:33:21;4.37;;;1.95;;
78453;SDS011;67750;55.832;49.124;2023-04-03T08:35:51;7.25;;;1.80;;
78453;SDS011;67750;55.832;49.124;2023-04-03T08:38:20;5.42;;;1.45;;
78453;SDS011;67750;55.832;49.124;2023-04-03T08:52:10;8.15;;;1.90;;
78453;SDS011;67750;55.832;49.124;2023-04-03T08:54:48;9.98;;;1.92;;
78453;SDS011;67750;55.832;49.124;2023-04-03T08:59:41;8.68;;;1.70;;
78453;SDS011;67750;55.832;49.124;2023-04-03T09:05:01;12.80;;;1.92;;
78453;SDS011;67750;55.832;49.124;2023-04-03T09:07:33;9.25;;;1.90;;
78453;SDS011;67750;55.832;49.124;2023-04-03T09:12:34;6.10;;;1.77;;
78453;SDS011;67750;55.832;49.124;2023-04-03T09:29:14;9.05;;;2.58;;
78453;SDS011;67750;55.832;49.124;2023-04-03T09:37:01;20.17;;;2.92;;
78453;SDS011;67750;55.832;49.124;2023-04-03T09:39:48;18.10;;;3.17;;
78453;SDS011;67750;55.832;49.124;2023-04-03T09:42:35;9.35;;;2.10;;
78453;SDS011;67750;55.832;49.124;2023-04-03T09:44:37;20.08;;;3.10;;
78453;SDS011;67750;55.832;49.124;2023-04-03T09:50:09;9.68;;;2.37;;
78453;SDS011;67750;55.832;49.124;2023-04-03T09:54:56;4.75;;;1.32;;
78453;SDS011;67750;55.832;49.124;2023-04-03T10:02:45;8.45;;;2.33;;
78453;SDS011;67750;55.832;49.124;2023-04-03T10:07:44;10.23;;;1.70;;
78453;SDS011;67750;55.832;49.124;2023-04-03T10:13:04;8.68;;;1.80;;
78453;SDS011;67750;55.832;49.124;2023-04-03T10:15:36;10.70;;;1.47;;
78453;SDS011;67750;55.832;49.124;2023-04-03T10:29:39;13.22;;;1.50;;
78453;SDS011;67750;55.832;49.124;2023-04-03T10:34:25;8.53;;;1.20;;
78453;SDS011;67750;55.832;49.124;2023-04-03T10:42:36;10.30;;;1.67;;
78453;SDS011;67750;55.832;49.124;2023-04-03T10:50:26;12.68;;;1.80;;
78453;SDS011;67750;55.832;49.124;2023-04-03T11:03:52;12.03;;;2.08;;
78453;SDS011;67750;55.832;49.124;2023-04-03T11:08:51;11.30;;;1.87;;
78453;SDS011;67750;55.832;49.124;2023-04-03T11:22:45;10.50;;;1.32;;
78453;SDS011;67750;55.832;49.124;2023-04-03T11:27:46;9.18;;;1.55;;
78453;SDS011;67750;55.832;49.124;2023-04-03T11:35:56;12.50;;;1.40;;
78453;SDS011;67750;55.832;49.124;2023-04-03T11:38:26;10.82;;;1.30;;
78453;SDS011;67750;55.832;49.124;2023-04-03T11:40:57;9.85;;;1.35;;
78453;SDS011;67750;55.832;49.124;2023-04-03T11:43:28;11.80;;;1.37;;
78453;SDS011;67750;55.832;49.124;2023-04-03T11:48:48;14.43;;;1.50;;
78453;SDS011;67750;55.832;49.124;2023-04-03T11:53:49;10.18;;;1.15;;
78453;SDS011;67750;55.832;49.124;2023-04-03T12:01:57;14.15;;;1.40;;
78453;SDS011;67750;55.832;49.124;2023-04-03T12:07:00;14.80;;;2.05;;
78453;SDS011;67750;55.832;49.124;2023-04-03T12:17:59;21.85;;;2.10;;
78453;SDS011;67750;55.832;49.124;2023-04-03T12:28:58;14.78;;;2.50;;
78453;SDS011;67750;55.832;49.124;2023-04-03T12:31:36;13.08;;;1.75;;
78453;SDS011;67750;55.832;49.124;2023-04-03T12:42:11;24.67;;;2.33;;
78453;SDS011;67750;55.832;49.124;2023-04-03T12:47:10;16.35;;;2.05;;
78453;SDS011;67750;55.832;49.124;2023-04-03T12:54:53;23.52;;;3.80;;
78453;SDS011;67750;55.832;49.124;2023-04-03T12:57:25;15.55;;;3.17;;
78453;SDS011;67750;55.832;49.124;2023-04-03T12:59:54;15.50;;;1.57;;
78453;SDS011;67750;55.832;49.124;2023-04-03T13:02:25;17.05;;;1.95;;
78453;SDS011;67750;55.832;49.124;2023-04-03T13:07:25;20.45;;;2.50;;
78453;SDS011;67750;55.832;49.124;2023-04-03T13:10:31;12.00;;;1.50;;
78453;SDS011;67750;55.832;49.124;2023-04-03T13:12:28;13.45;;;1.75;;
78453;SDS011;67750;55.832;49.124;2023-04-03T13:15:00;18.23;;;1.67;;
78453;SDS011;67750;55.832;49.124;2023-04-03T13:17:31;15.45;;;2.02;;
78453;SDS011;67750;55.832;49.124;2023-04-03T13:23:22;14.38;;;1.40;;
78453;SDS011;67750;55.832;49.124;2023-04-03T13:25:22;18.05;;;2.52;;
78453;SDS011;67750;55.832;49.124;2023-04-03T13:27:52;11.35;;;1.75;;
78453;SDS011;67750;55.832;49.124;2023-04-03T13:41:41;14.87;;;1.72;;
78453;SDS011;67750;55.832;49.124;2023-04-03T13:47:01;15.23;;;2.12;;
78453;SDS011;67750;55.832;49.124;2023-04-03T13:51:59;14.75;;;2.08;;
78453;SDS011;67750;55.832;49.124;2023-04-03T13:57:18;11.43;;;1.62;;
78453;SDS011;67750;55.832;49.124;2023-04-03T13:59:48;15.03;;;2.45;;
78453;SDS011;67750;55.832;49.124;2023-04-03T14:02:19;16.20;;;2.08;;
78453;SDS011;67750;55.832;49.124;2023-04-03T14:04:51;16.17;;;1.75;;
78453;SDS011;67750;55.832;49.124;2023-04-03T14:07:22;8.75;;;1.70;;
78453;SDS011;67750;55.832;49.124;2023-04-03T14:09:51;16.75;;;2.10;;
78453;SDS011;67750;55.832;49.124;2023-04-03T14:17:59;11.50;;;2.10;;
78453;SDS011;67750;55.832;49.124;2023-04-03T14:20:29;12.90;;;2.20;;
78453;SDS011;67750;55.832;49.124;2023-04-03T14:22:58;15.38;;;2.02;;
78453;SDS011;67750;55.832;49.124;2023-04-03T14:25:27;12.60;;;2.10;;
78453;SDS011;67750;55.832;49.124;2023-04-03T14:27:57;18.52;;;2.05;;
78453;SDS011;67750;55.832;49.124;2023-04-03T14:30:28;9.80;;;1.60;;
78453;SDS011;67750;55.832;49.124;2023-04-03T14:35:26;9.50;;;2.17;;
78453;SDS011;67750;55.832;49.124;2023-04-03T14:37:56;14.50;;;1.80;;
78453;SDS011;67750;55.832;49.124;2023-04-03T14:40:26;19.37;;;2.08;;
78453;SDS011;67750;55.832;49.124;2023-04-03T14:42:56;10.40;;;1.57;;
78453;SDS011;67750;55.832;49.124;2023-04-03T14:45:26;20.88;;;2.17;;
78453;SDS011;67750;55.832;49.124;2023-04-03T14:47:55;14.03;;;2.87;;
78453;SDS011;67750;55.832;49.124;2023-04-03T14:50:26;38.15;;;4.33;;
78453;SDS011;67750;55.832;49.124;2023-04-03T14:52:58;26.02;;;2.87;;
78453;SDS011;67750;55.832;49.124;2023-04-03T14:55:27;16.15;;;2.10;;
78453;SDS011;67750;55.832;49.124;2023-04-03T14:57:56;18.10;;;2.65;;
78453;SDS011;67750;55.832;49.124;2023-04-03T15:00:26;14.18;;;2.25;;
78453;SDS011;67750;55.832;49.124;2023-04-03T15:02:55;14.05;;;2.52;;
78453;SDS011;67750;55.832;49.124;2023-04-03T15:05:25;24.95;;;2.62;;
78453;SDS011;67750;55.832;49.124;2023-04-03T15:07:54;33.30;;;4.15;;
78453;SDS011;67750;55.832;49.124;2023-04-03T15:10:25;25.72;;;3.98;;
78453;SDS011;67750;55.832;49.124;2023-04-03T15:12:55;42.60;;;4.37;;
78453;SDS011;67750;55.832;49.124;2023-04-03T15:15:26;35.03;;;4.03;;
78453;SDS011;67750;55.832;49.124;2023-04-03T15:20:44;37.75;;;5.22;;
78453;SDS011;67750;55.832;49.124;2023-04-03T15:25:43;20.12;;;3.65;;
78453;SDS011;67750;55.832;49.124;2023-04-03T15:31:03;29.35;;;3.72;;
78453;SDS011;67750;55.832;49.124;2023-04-03T15:33:33;29.95;;;3.62;;
78453;SDS011;67750;55.832;49.124;2023-04-03T15:36:03;36.23;;;4.65;;
78453;SDS011;67750;55.832;49.124;2023-04-03T15:38:33;32.17;;;4.37;;
78453;SDS011;67750;55.832;49.124;2023-04-03T15:41:04;23.57;;;3.08;;
78453;SDS011;67750;55.832;49.124;2023-04-03T15:43:33;21.80;;;4.00;;
78453;SDS011;67750;55.832;49.124;2023-04-03T15:46:03;22.62;;;4.53;;
78453;SDS011;67750;55.832;49.124;2023-04-03T15:48:32;33.48;;;5.22;;
78453;SDS011;67750;55.832;49.124;2023-04-03T15:51:02;34.27;;;4.45;;
78453;SDS011;67750;55.832;49.124;2023-04-03T15:53:31;24.02;;;3.70;;
78453;SDS011;67750;55.832;49.124;2023-04-03T15:56:01;32.23;;;5.17;;
78453;SDS011;67750;55.832;49.124;2023-04-03T15:58:31;26.95;;;3.98;;
78453;SDS011;67750;55.832;49.124;2023-04-03T16:01:01;35.00;;;4.85;;
78453;SDS011;67750;55.832;49.124;2023-04-03T16:03:30;36.23;;;6.00;;
78453;SDS011;67750;55.832;49.124;2023-04-03T16:06:00;49.33;;;6.33;;
78453;SDS011;67750;55.832;49.124;2023-04-03T16:08:30;61.85;;;6.20;;
78453;SDS011;67750;55.832;49.124;2023-04-03T16:10:59;43.17;;;6.45;;
78453;SDS011;67750;55.832;49.124;2023-04-03T16:13:29;40.25;;;6.12;;
78453;SDS011;67750;55.832;49.124;2023-04-03T16:16:00;38.33;;;6.35;;
78453;SDS011;67750;55.832;49.124;2023-04-03T16:18:30;39.25;;;6.20;;
78453;SDS011;67750;55.832;49.124;2023-04-03T16:20:59;36.33;;;7.03;;
78453;SDS011;67750;55.832;49.124;2023-04-03T16:23:29;46.28;;;7.20;;
78453;SDS011;67750;55.832;49.124;2023-04-03T16:25:58;44.93;;;7.47;;
78453;SDS011;67750;55.832;49.124;2023-04-03T16:28:28;81.12;;;9.18;;
78453;SDS011;67750;55.832;49.124;2023-04-03T16:30:57;48.45;;;8.58;;
78453;SDS011;67750;55.832;49.124;2023-04-03T16:33:27;41.28;;;6.67;;
78453;SDS011;67750;55.832;49.124;2023-04-03T16:35:56;54.55;;;7.47;;
78453;SDS011;67750;55.832;49.124;2023-04-03T16:38:26;40.95;;;7.60;;
78453;SDS011;67750;55.832;49.124;2023-04-03T16:40:55;58.52;;;9.88;;
78453;SDS011;67750;55.832;49.124;2023-04-03T16:43:26;54.60;;;9.48;;
78453;SDS011;67750;55.832;49.124;2023-04-03T16:45:55;57.17;;;10.23;;
78453;SDS011;67750;55.832;49.124;2023-04-03T16:48:25;64.22;;;9.25;;
78453;SDS011;67750;55.832;49.124;2023-04-03T16:50:54;51.00;;;10.32;;
78453;SDS011;67750;55.832;49.124;2023-04-03T16:53:24;45.38;;;10.90;;
78453;SDS011;67750;55.832;49.124;2023-04-03T16:55:54;52.70;;;11.28;;
78453;SDS011;67750;55.832;49.124;2023-04-03T16:58:23;47.30;;;10.95;;
78453;SDS011;67750;55.832;49.124;2023-04-03T17:00:53;57.33;;;10.32;;
78453;SDS011;67750;55.832;49.124;2023-04-03T17:03:22;38.95;;;11.25;;
78453;SDS011;67750;55.832;49.124;2023-04-03T17:05:52;50.15;;;10.80;;
78453;SDS011;67750;55.832;49.124;2023-04-03T17:08:22;53.15;;;10.30;;
78453;SDS011;67750;55.832;49.124;2023-04-03T17:10:51;39.80;;;10.18;;
78453;SDS011;67750;55.832;49.124;2023-04-03T17:13:21;42.80;;;10.10;;
78453;SDS011;67750;55.832;49.124;2023-04-03T17:18:21;40.05;;;8.80;;
78453;SDS011;67750;55.832;49.124;2023-04-03T17:20:50;45.73;;;9.28;;
78453;SDS011;67750;55.832;49.124;2023-04-03T17:23:20;33.60;;;8.75;;
78453;SDS011;67750;55.832;49.124;2023-04-03T17:25:49;46.88;;;9.85;;
78453;SDS011;67750;55.832;49.124;2023-04-03T17:28:21;41.63;;;9.10;;
78453;SDS011;67750;55.832;49.124;2023-04-03T17:30:53;54.45;;;10.88;;
78453;SDS011;67750;55.832;49.124;2023-04-03T17:33:23;42.98;;;9.55;;
78453;SDS011;67750;55.832;49.124;2023-04-03T17:35:53;62.58;;;11.75;;
78453;SDS011;67750;55.832;49.124;2023-04-03T17:38:23;69.92;;;11.48;;
78453;SDS011;67750;55.832;49.124;2023-04-03T17:43:42;93.03;;;15.58;;
78453;SDS011;67750;55.832;49.124;2023-04-03T17:46:12;86.80;;;15.70;;
78453;SDS011;67750;55.832;49.124;2023-04-03T17:48:43;85.60;;;14.93;;
78453;SDS011;67750;55.832;49.124;2023-04-03T17:51:13;86.35;;;14.93;;
78453;SDS011;67750;55.832;49.124;2023-04-03T17:53:43;67.12;;;11.68;;
78453;SDS011;67750;55.832;49.124;2023-04-03T17:59:02;81.02;;;14.05;;
78453;SDS011;67750;55.832;49.124;2023-04-03T18:01:33;80.50;;;14.20;;
78453;SDS011;67750;55.832;49.124;2023-04-03T18:04:03;79.32;;;14.75;;
78453;SDS011;67750;55.832;49.124;2023-04-03T18:06:36;100.22;;;17.02;;
78453;SDS011;67750;55.832;49.124;2023-04-03T18:09:05;87.15;;;14.35;;
78453;SDS011;67750;55.832;49.124;2023-04-03T18:11:35;80.95;;;15.43;;
78453;SDS011;67750;55.832;49.124;2023-04-03T18:14:05;91.67;;;16.87;;
78453;SDS011;67750;55.832;49.124;2023-04-03T18:16:35;106.85;;;18.07;;
78453;SDS011;67750;55.832;49.124;2023-04-03T18:19:04;84.28;;;15.10;;
78453;SDS011;67750;55.832;49.124;2023-04-03T18:21:35;91.08;;;17.32;;
78453;SDS011;67750;55.832;49.124;2023-04-03T18:24:06;107.90;;;17.10;;
78453;SDS011;67750;55.832;49.124;2023-04-03T18:26:36;83.45;;;15.03;;
78453;SDS011;67750;55.832;49.124;2023-04-03T18:29:05;80.00;;;15.15;;
78453;SDS011;67750;55.832;49.124;2023-04-03T18:31:35;88.60;;;15.65;;
78453;SDS011;67750;55.832;49.124;2023-04-03T18:34:05;84.25;;;15.10;;
78453;SDS011;67750;55.832;49.124;2023-04-03T18:36:35;77.12;;;15.50;;